Aérodrome :
LOGIN :

S'inscrire | Disclaimer

   EN    FR    IT 

 










Légende :    VFR   VFR Marginal   IFR   IFR Intensif   IFR Très Intensif
Visi : 
Plafond : 
>= 8 km
>= 3000ft
5 à 8 km
1000 à 3000 ft
1500m à 5 km
500 à 1000 ft
800 à 1500m
200 à 500 ft
< 800m
< 200 ft
Symboles :   Orages  Brouillard  Fortes neiges  Fortes précipitations  Vent > 20 kt
SIGMETs :   Divers  Orages  Givrage  Turbulence  Onde Orograph.  Cendres Volcan.







- Altitude de l'aérodrome : 463 ft
- Code IATA : QAS


DAOI - Chlef Int.

DERNIER METAR :
  • 181700Z 00000KT 9999 FEW026 FEW033CB SCT100 20/17 Q1007

METARs EXPIRÉS :
  • 181600Z 00000KT 9999 SCT026 FEW033CB SCT100 20/17 Q1007
  • 181500Z 00000KT 9999 SCT026 SCT030 FEW033CB 20/18 Q1007

TAF TAF DAOI
Valide du 18 à 18h jusqu'au 19 à 18h UTC


181700Z 1818/1918 22011KT 7000 SCT016 BKN030
TEMPO 1818/1824 5000 RA SCT020TCU FEW030CB
BECMG 1900/1903 VRB02KT BKN020
PROB40
TEMPO 1906/1912 -TSRA FEW030CB
Pas de NOTAMs connus pour ce terrain.
1 SIGMET publié pour la FIR Alger (DAAA) :
 
Orages noyés dans la masse
DAAA SIGMET 3 VALID 181400/181800 DAAA ALGER FIR EMBD TS FCST W OF LINE N3622 W00000 - N3338 E00003 TOP FL340 MOV E/NE INTSF=



MET'MAP, la Météo Aéronautique d'un coup d'oeil ! - Copyright ORBIFLY Décembre 2007 - Disclaimer

ORBIFLY MET'MAP TEAM :

Programmation & Développement : Alexandra Zaïnal
Conception & Développement : Baudouin d'Aumeries
Co-Programmation & Développement : Marc-Olivier Méhu
Soutien technique & logistique : Manuel Goepfert

Contact : metmap@orbifly.com




SOURCES & CREDITS :

   NOAA